createdAt,value
2023-09-19T00:00:52.414Z,80.50
2023-09-19T00:03:20.171Z,80.60
2023-09-19T00:05:48.679Z,80.80
2023-09-19T00:08:16.348Z,81.40
2023-09-19T00:10:44.833Z,81.30
2023-09-19T00:13:16.641Z,81.00
2023-09-19T00:15:51.164Z,81.80
2023-09-19T00:18:25.315Z,81.40
2023-09-19T00:20:53.990Z,81.60
2023-09-19T00:23:22.050Z,81.80
2023-09-19T00:25:52.018Z,81.70
2023-09-19T00:28:20.874Z,81.80
2023-09-19T00:30:51.733Z,81.60
2023-09-19T00:33:20.483Z,81.60
2023-09-19T00:35:53.461Z,81.90
2023-09-19T00:38:23.792Z,81.40
2023-09-19T00:40:54.659Z,81.20
2023-09-19T00:43:25.114Z,80.90
2023-09-19T00:45:56.419Z,81.10
2023-09-19T00:48:26.126Z,81.20
2023-09-19T00:50:55.029Z,80.80
2023-09-19T00:53:24.865Z,80.70
2023-09-19T00:55:53.474Z,80.70
2023-09-19T00:58:21.579Z,81.20
2023-09-19T01:00:50.521Z,81.30
2023-09-19T01:03:20.129Z,81.50
2023-09-19T01:05:48.266Z,81.30
2023-09-19T01:08:15.869Z,81.20
2023-09-19T01:11:33.748Z,81.20
2023-09-19T01:14:31.650Z,80.60
2023-09-19T01:17:23.844Z,81.30
2023-09-19T01:20:16.103Z,81.00
2023-09-19T01:23:08.267Z,80.60
2023-09-19T01:25:58.574Z,80.60
2023-09-19T01:28:44.422Z,80.60
2023-09-19T01:31:13.253Z,81.10
2023-09-19T01:34:02.049Z,81.10
2023-09-19T01:36:37.549Z,81.50
2023-09-19T01:39:10.191Z,81.80
2023-09-19T01:42:19.123Z,82.50
2023-09-19T01:45:17.687Z,82.40
2023-09-19T01:47:59.190Z,82.80
2023-09-19T01:50:45.039Z,82.50
2023-09-19T01:53:24.896Z,82.20
2023-09-19T01:55:54.356Z,82.10
2023-09-19T01:58:39.254Z,82.00
2023-09-19T02:01:09.540Z,82.00
2023-09-19T02:03:41.171Z,82.20
2023-09-19T02:06:12.513Z,82.30
2023-09-19T02:08:40.607Z,82.20
2023-09-19T02:11:08.227Z,82.50
2023-09-19T02:13:36.100Z,82.50
2023-09-19T02:16:05.434Z,82.00
2023-09-19T02:18:36.004Z,81.70
2023-09-19T02:21:13.378Z,81.60
2023-09-19T02:23:42.415Z,81.50
2023-09-19T02:26:10.377Z,81.50
2023-09-19T02:28:37.953Z,81.30
2023-09-19T02:31:08.643Z,80.90
2023-09-19T02:33:36.982Z,80.90
2023-09-19T02:36:05.074Z,80.70
2023-09-19T02:38:32.817Z,80.80
2023-09-19T02:41:01.279Z,80.60
2023-09-19T02:43:29.684Z,80.40
2023-09-19T02:45:58.309Z,80.40
2023-09-19T02:48:26.644Z,80.80
2023-09-19T02:50:54.444Z,80.80
2023-09-19T02:53:22.218Z,80.90
2023-09-19T02:55:49.938Z,81.00
2023-09-19T02:58:19.877Z,81.00
2023-09-19T03:00:49.005Z,81.10
2023-09-19T03:03:17.753Z,81.00
2023-09-19T03:05:48.325Z,81.70
2023-09-19T03:08:18.352Z,82.00
2023-09-19T03:10:51.473Z,82.90
2023-09-19T03:13:19.205Z,82.90
2023-09-19T03:15:51.771Z,83.50
2023-09-19T03:18:24.708Z,84.00
2023-09-19T03:20:56.770Z,84.90
2023-09-19T03:23:24.998Z,85.20
2023-09-19T03:25:53.614Z,86.10
2023-09-19T03:28:22.822Z,86.40
2023-09-19T03:31:05.778Z,86.80
2023-09-19T03:33:36.102Z,87.10
2023-09-19T03:36:08.261Z,87.20
2023-09-19T03:38:36.316Z,87.20
2023-09-19T03:41:04.450Z,86.80
2023-09-19T03:43:34.186Z,87.30
2023-09-19T03:46:08.707Z,87.90
2023-09-19T03:48:37.329Z,87.90
2023-09-19T03:51:05.641Z,87.40
2023-09-19T03:53:33.421Z,87.30
2023-09-19T03:56:01.250Z,87.60
2023-09-19T03:58:30.468Z,87.60
2023-09-19T04:00:59.202Z,87.70
2023-09-19T04:03:36.611Z,87.80
2023-09-19T04:06:04.537Z,88.20
2023-09-19T04:08:32.403Z,88.10
2023-09-19T04:10:59.961Z,87.50
2023-09-19T04:13:27.720Z,87.70
2023-09-19T04:15:55.603Z,87.70
2023-09-19T04:18:24.780Z,88.20
2023-09-19T04:20:52.662Z,87.90
2023-09-19T04:23:23.199Z,87.30
2023-09-19T04:25:51.573Z,87.10
2023-09-19T04:28:19.963Z,86.60
2023-09-19T04:30:47.700Z,86.40
2023-09-19T04:33:15.697Z,86.00
2023-09-19T04:35:43.777Z,86.00
2023-09-19T04:38:11.393Z,86.40
2023-09-19T04:40:40.909Z,85.70
2023-09-19T04:43:08.825Z,85.70
2023-09-19T04:45:36.471Z,86.20
2023-09-19T04:48:04.469Z,88.90
2023-09-19T04:50:32.260Z,91.50
2023-09-19T04:53:00.178Z,93.30
2023-09-19T04:55:28.311Z,94.50
2023-09-19T04:57:56.300Z,95.00
2023-09-19T05:00:25.724Z,95.10
2023-09-19T05:02:57.670Z,94.00
2023-09-19T05:05:26.956Z,96.50
2023-09-19T05:07:57.751Z,97.10
2023-09-19T05:10:26.113Z,97.20
2023-09-19T05:12:56.737Z,97.70
2023-09-19T05:15:24.514Z,97.90
2023-09-19T05:17:57.949Z,98.10
2023-09-19T05:20:34.449Z,98.80
2023-09-19T05:23:10.110Z,99.70
2023-09-19T05:25:39.206Z,99.90
2023-09-19T05:28:08.504Z,99.90
2023-09-19T05:30:37.570Z,99.90
2023-09-19T05:33:06.628Z,99.70
2023-09-19T05:35:34.481Z,99.30
2023-09-19T05:38:02.125Z,99.80
2023-09-19T05:40:29.730Z,99.30
2023-09-19T05:42:57.420Z,97.40
2023-09-19T05:45:25.840Z,96.20
2023-09-19T05:48:05.192Z,95.40
2023-09-19T05:50:33.070Z,96.50
2023-09-19T05:53:00.871Z,96.80
2023-09-19T05:55:29.660Z,96.50
2023-09-19T05:57:57.626Z,96.00
2023-09-19T06:00:28.380Z,96.00
2023-09-19T06:02:58.605Z,96.20
2023-09-19T06:05:28.167Z,96.90
2023-09-19T06:07:55.937Z,96.60
2023-09-19T06:10:23.842Z,96.50
2023-09-19T06:12:51.729Z,96.20
2023-09-19T06:15:25.898Z,94.50
2023-09-19T06:17:56.546Z,93.80
2023-09-19T06:20:26.621Z,93.70
2023-09-19T06:22:54.828Z,94.10
2023-09-19T06:25:23.289Z,93.50
2023-09-19T06:27:54.696Z,93.40
2023-09-19T06:30:25.089Z,92.30
2023-09-19T06:33:02.284Z,94.10
2023-09-19T06:35:33.879Z,93.90
2023-09-19T06:38:05.555Z,94.60
2023-09-19T06:40:35.331Z,94.00
2023-09-19T06:43:03.501Z,93.70
2023-09-19T06:45:33.077Z,93.90
2023-09-19T06:48:01.377Z,92.90
2023-09-19T06:50:29.446Z,93.70
2023-09-19T06:52:58.996Z,93.40
2023-09-19T06:55:32.695Z,93.70
2023-09-19T06:58:01.024Z,93.30
2023-09-19T07:00:29.640Z,94.00
2023-09-19T07:03:05.775Z,93.40
2023-09-19T07:05:34.718Z,93.80
2023-09-19T07:08:02.434Z,94.00
2023-09-19T07:10:31.685Z,93.50
2023-09-19T07:13:10.261Z,93.30
2023-09-19T07:15:47.414Z,93.40
2023-09-19T07:18:18.003Z,94.00
2023-09-19T07:20:50.545Z,93.80
2023-09-19T07:23:27.078Z,91.30
2023-09-19T07:25:58.391Z,93.20
2023-09-19T07:28:25.995Z,92.80
2023-09-19T07:30:53.797Z,93.50
2023-09-19T07:33:21.582Z,93.20
2023-09-19T07:35:49.460Z,93.50
2023-09-19T07:38:17.857Z,93.40
2023-09-19T07:40:45.574Z,94.20
2023-09-19T07:43:13.291Z,93.40
2023-09-19T07:45:41.033Z,93.70
2023-09-19T07:48:15.249Z,93.50
2023-09-19T07:50:44.635Z,94.30
2023-09-19T07:53:14.609Z,94.20
2023-09-19T07:55:42.518Z,93.30
2023-09-19T07:58:10.179Z,91.50
2023-09-19T08:00:37.779Z,91.60
2023-09-19T08:03:15.858Z,90.20
2023-09-19T08:05:46.255Z,90.30
2023-09-19T08:08:15.840Z,89.60
2023-09-19T08:10:46.717Z,88.70
2023-09-19T08:13:15.514Z,87.80
2023-09-19T08:15:46.650Z,88.10
2023-09-19T08:18:15.771Z,87.20
2023-09-19T08:20:43.862Z,86.60
2023-09-19T08:23:11.477Z,85.60
2023-09-19T08:25:40.938Z,84.40
2023-09-19T08:28:13.508Z,85.00
2023-09-19T08:30:42.075Z,85.00
2023-09-19T08:33:09.887Z,81.40
2023-09-19T08:35:40.802Z,82.60
2023-09-19T08:38:08.454Z,82.20
2023-09-19T08:40:41.427Z,83.10
2023-09-19T08:43:09.564Z,83.30
2023-09-19T08:45:38.262Z,82.90
2023-09-19T08:48:26.424Z,83.10
2023-09-19T08:51:18.893Z,81.80
2023-09-19T08:53:55.608Z,82.40
2023-09-19T08:56:25.621Z,81.50
2023-09-19T08:59:01.086Z,80.80
2023-09-19T09:01:34.025Z,77.70
2023-09-19T09:04:03.618Z,78.10
2023-09-19T09:06:33.791Z,77.00
2023-09-19T09:09:01.670Z,75.20
2023-09-19T09:11:29.862Z,71.10
2023-09-19T09:13:58.735Z,71.60
2023-09-19T09:16:27.372Z,71.00
2023-09-19T09:18:55.878Z,70.50
2023-09-19T09:21:26.731Z,70.70
2023-09-19T09:23:55.007Z,69.00
2023-09-19T09:26:55.998Z,68.70
2023-09-19T09:29:50.873Z,66.30
2023-09-19T09:32:26.723Z,65.40
2023-09-19T09:35:02.106Z,67.50
2023-09-19T09:37:33.230Z,66.40
2023-09-19T09:40:15.546Z,68.30
2023-09-19T09:42:47.313Z,67.00
2023-09-19T09:45:34.081Z,67.10
2023-09-19T09:48:05.098Z,66.20
2023-09-19T09:50:56.875Z,64.70
2023-09-19T09:53:29.646Z,62.10
2023-09-19T09:56:08.025Z,62.20
2023-09-19T09:58:57.117Z,61.80
2023-09-19T10:01:27.936Z,61.60
2023-09-19T10:04:01.425Z,61.80
2023-09-19T10:06:48.008Z,62.70
2023-09-19T10:09:18.501Z,62.20
2023-09-19T10:12:09.495Z,62.70
2023-09-19T10:14:42.735Z,62.30
2023-09-19T10:17:13.553Z,61.20
2023-09-19T10:19:53.956Z,62.00
2023-09-19T10:22:23.909Z,62.10
2023-09-19T10:25:02.794Z,61.30
2023-09-19T10:27:37.334Z,60.50
2023-09-19T10:30:09.413Z,60.00
2023-09-19T10:32:40.956Z,59.90
2023-09-19T10:35:09.778Z,59.90
2023-09-19T10:37:39.227Z,60.20
2023-09-19T10:40:13.089Z,61.10
2023-09-19T10:42:43.515Z,60.90
2023-09-19T10:45:15.095Z,60.20
2023-09-19T10:47:44.014Z,61.00
2023-09-19T10:50:27.890Z,62.10
2023-09-19T10:53:07.443Z,61.60
2023-09-19T10:55:37.621Z,61.90
2023-09-19T10:58:16.042Z,62.90
2023-09-19T11:01:02.706Z,62.70
2023-09-19T11:03:34.376Z,59.70
2023-09-19T11:06:14.730Z,58.40
2023-09-19T11:09:16.980Z,60.30
2023-09-19T11:11:54.490Z,60.00
2023-09-19T11:14:25.334Z,61.00
2023-09-19T11:17:08.451Z,61.10
2023-09-19T11:20:14.327Z,59.90
2023-09-19T11:22:58.664Z,60.80
2023-09-19T11:25:44.209Z,60.20
2023-09-19T11:28:16.591Z,61.10
2023-09-19T11:30:47.091Z,62.20
2023-09-19T11:33:24.822Z,62.30
2023-09-19T11:36:19.449Z,62.30
2023-09-19T11:38:47.569Z,60.40
2023-09-19T11:41:27.737Z,61.50
2023-09-19T11:44:02.102Z,60.10
2023-09-19T11:46:35.181Z,58.10
2023-09-19T11:49:13.629Z,58.20
2023-09-19T11:51:45.913Z,57.50
2023-09-19T11:54:19.692Z,57.60
2023-09-19T11:56:51.645Z,56.40
2023-09-19T11:59:29.361Z,55.70
2023-09-19T12:02:09.879Z,55.10
2023-09-19T12:04:49.283Z,55.00
2023-09-19T12:07:17.914Z,54.00
2023-09-19T12:09:49.056Z,53.70
2023-09-19T12:12:36.795Z,54.50
2023-09-19T12:15:05.130Z,54.60
2023-09-19T12:17:45.836Z,54.10
2023-09-19T12:20:17.781Z,46.20
2023-09-19T12:22:47.929Z,47.60
2023-09-19T12:25:19.275Z,45.80
2023-09-19T12:27:54.521Z,45.90
2023-09-19T12:30:29.287Z,46.80
2023-09-19T12:32:59.691Z,47.50
2023-09-19T12:35:36.001Z,48.60
2023-09-19T12:38:08.788Z,46.80
2023-09-19T12:40:39.076Z,47.00
2023-09-19T12:43:08.370Z,46.20
2023-09-19T12:45:38.566Z,48.00
2023-09-19T12:48:35.842Z,48.20
2023-09-19T12:51:08.509Z,46.10
2023-09-19T12:53:45.184Z,46.60
2023-09-19T12:56:16.804Z,48.40
2023-09-19T12:58:55.978Z,46.70
2023-09-19T13:01:28.678Z,44.30
2023-09-19T13:04:30.685Z,45.80
2023-09-19T13:07:02.128Z,46.20
2023-09-19T13:09:35.888Z,47.70
2023-09-19T13:12:04.863Z,46.50
2023-09-19T13:14:32.597Z,43.90
2023-09-19T13:17:07.658Z,44.80
2023-09-19T13:19:55.531Z,45.20
2023-09-19T13:22:49.573Z,44.20
2023-09-19T13:25:19.894Z,44.40
2023-09-19T13:27:58.284Z,43.90
2023-09-19T13:30:30.292Z,45.60
2023-09-19T13:33:11.705Z,44.90
2023-09-19T13:35:41.998Z,43.50
2023-09-19T13:38:12.639Z,44.60
2023-09-19T13:40:43.037Z,43.90
2023-09-19T13:43:12.507Z,44.30
2023-09-19T13:45:43.133Z,44.50
2023-09-19T13:48:12.345Z,43.90
2023-09-19T13:50:43.217Z,44.20
2023-09-19T13:53:11.027Z,43.60
2023-09-19T13:55:39.001Z,44.90
2023-09-19T13:58:07.847Z,44.50
2023-09-19T14:00:35.529Z,44.40
2023-09-19T14:03:03.558Z,44.70
2023-09-19T14:05:32.454Z,42.20
2023-09-19T14:08:04.203Z,43.20
2023-09-19T14:10:32.583Z,42.00
2023-09-19T14:13:00.646Z,43.60
2023-09-19T14:15:33.415Z,43.90
2023-09-19T14:18:01.989Z,44.10
2023-09-19T14:20:31.310Z,43.70
2023-09-19T14:23:02.296Z,41.70
2023-09-19T14:25:31.299Z,43.30
2023-09-19T14:27:58.927Z,43.00
2023-09-19T14:30:26.604Z,42.20
2023-09-19T14:32:54.731Z,38.80
2023-09-19T14:35:24.074Z,40.80
2023-09-19T14:37:52.399Z,40.60
2023-09-19T14:40:20.060Z,39.70
2023-09-19T14:42:49.437Z,40.80
2023-09-19T14:45:19.262Z,39.30
2023-09-19T14:47:48.648Z,39.40
2023-09-19T14:50:16.790Z,40.50
2023-09-19T14:52:45.193Z,41.00
2023-09-19T14:55:15.521Z,41.10
2023-09-19T14:57:47.082Z,41.90
2023-09-19T15:00:15.372Z,41.80
2023-09-19T15:02:43.209Z,42.00
2023-09-19T15:05:11.378Z,41.90
2023-09-19T15:07:39.730Z,41.20
2023-09-19T15:10:10.819Z,42.10
2023-09-19T15:12:38.966Z,41.50
2023-09-19T15:15:10.528Z,41.50
2023-09-19T15:17:38.569Z,43.20
2023-09-19T15:20:08.182Z,41.40
2023-09-19T15:22:36.089Z,42.10
2023-09-19T15:25:05.130Z,42.40
2023-09-19T15:27:33.713Z,42.20
2023-09-19T15:30:03.820Z,42.90
2023-09-19T15:32:32.180Z,42.10
2023-09-19T15:34:59.852Z,42.90
2023-09-19T15:37:27.632Z,42.20
2023-09-19T15:39:55.258Z,41.60
2023-09-19T15:42:22.833Z,41.40
2023-09-19T15:44:52.886Z,41.60
2023-09-19T15:47:21.395Z,42.10
2023-09-19T15:49:50.392Z,43.70
2023-09-19T15:52:18.894Z,43.50
2023-09-19T15:54:46.507Z,43.70
2023-09-19T15:57:15.102Z,43.50
2023-09-19T15:59:42.818Z,42.80
2023-09-19T16:02:10.576Z,44.20
2023-09-19T16:04:39.571Z,44.20
2023-09-19T16:07:07.840Z,44.40
2023-09-19T16:09:36.427Z,44.50
2023-09-19T16:12:04.428Z,44.50
2023-09-19T16:14:32.187Z,44.70
2023-09-19T16:17:01.004Z,44.80
2023-09-19T16:19:28.787Z,45.40
2023-09-19T16:21:56.870Z,45.70
2023-09-19T16:24:25.085Z,45.60
2023-09-19T16:26:54.035Z,45.70
2023-09-19T16:29:25.352Z,46.00
2023-09-19T16:31:53.488Z,45.70
2023-09-19T16:34:21.150Z,46.30
2023-09-19T16:36:49.144Z,46.70
2023-09-19T16:39:16.832Z,46.30
2023-09-19T16:41:44.395Z,46.80
2023-09-19T16:44:14.607Z,47.30
2023-09-19T16:46:42.784Z,47.80
2023-09-19T16:49:10.536Z,48.00
2023-09-19T16:51:38.996Z,48.40
2023-09-19T16:54:06.748Z,48.50
2023-09-19T16:56:37.805Z,49.20
2023-09-19T16:59:06.780Z,49.30
2023-09-19T17:01:34.639Z,49.20
2023-09-19T17:04:04.031Z,49.10
2023-09-19T17:06:32.133Z,49.20
2023-09-19T17:08:59.718Z,49.40
2023-09-19T17:11:27.537Z,49.40
2023-09-19T17:13:58.113Z,49.70
2023-09-19T17:16:29.645Z,49.90
2023-09-19T17:18:58.424Z,49.80
2023-09-19T17:21:28.052Z,50.20
2023-09-19T17:23:56.540Z,50.70
2023-09-19T17:26:26.138Z,50.50
2023-09-19T17:28:54.931Z,51.30
2023-09-19T17:31:27.278Z,52.90
2023-09-19T17:33:55.468Z,52.10
2023-09-19T17:36:26.101Z,52.30
2023-09-19T17:38:59.962Z,52.50
2023-09-19T17:41:28.397Z,52.40
2023-09-19T17:43:59.008Z,52.50
2023-09-19T17:46:29.899Z,53.00
2023-09-19T17:49:00.736Z,53.20
2023-09-19T17:51:29.127Z,53.70
2023-09-19T17:54:00.055Z,55.00
2023-09-19T17:56:28.455Z,54.30
2023-09-19T17:58:57.614Z,54.40
2023-09-19T18:01:28.806Z,54.40
2023-09-19T18:04:01.641Z,54.50
2023-09-19T18:06:29.999Z,54.50
2023-09-19T18:08:57.975Z,54.20
2023-09-19T18:11:27.341Z,53.90
2023-09-19T18:13:58.400Z,53.90
2023-09-19T18:16:32.930Z,54.10
2023-09-19T18:19:03.541Z,54.10
2023-09-19T18:21:34.100Z,54.60
2023-09-19T18:24:04.771Z,54.50
2023-09-19T18:26:33.875Z,54.20
2023-09-19T18:29:01.452Z,54.40
2023-09-19T18:31:29.969Z,54.30
2023-09-19T18:33:58.470Z,54.30
2023-09-19T18:36:29.151Z,54.20
2023-09-19T18:38:57.539Z,54.10
2023-09-19T18:41:25.249Z,54.00
2023-09-19T18:43:52.926Z,53.80
2023-09-19T18:46:20.601Z,53.70
2023-09-19T18:48:48.989Z,53.80
2023-09-19T18:51:19.333Z,53.70
2023-09-19T18:54:05.315Z,53.50
2023-09-19T18:56:38.602Z,53.60
2023-09-19T18:59:06.847Z,53.50
2023-09-19T19:01:36.282Z,54.30
2023-09-19T19:04:04.019Z,54.80
2023-09-19T19:06:31.884Z,55.40
2023-09-19T19:09:00.214Z,55.60
2023-09-19T19:11:31.094Z,56.10
2023-09-19T19:13:59.104Z,56.20
2023-09-19T19:16:27.791Z,56.20
2023-09-19T19:18:55.797Z,56.10
2023-09-19T19:21:23.486Z,56.40
2023-09-19T19:23:53.178Z,56.60
2023-09-19T19:26:24.460Z,56.70
2023-09-19T19:28:52.692Z,57.00
2023-09-19T19:31:22.957Z,57.00
2023-09-19T19:33:53.987Z,57.50
2023-09-19T19:36:23.365Z,59.20
2023-09-19T19:38:51.069Z,58.70
2023-09-19T19:41:19.094Z,58.70
2023-09-19T19:43:46.923Z,58.70
2023-09-19T19:46:15.201Z,58.80
2023-09-19T19:48:43.134Z,59.00
2023-09-19T19:51:11.994Z,59.10
2023-09-19T19:53:39.915Z,59.20
2023-09-19T19:56:07.917Z,59.00
2023-09-19T19:58:36.818Z,59.20
2023-09-19T20:01:07.698Z,59.20
2023-09-19T20:03:39.442Z,59.50
2023-09-19T20:06:07.545Z,59.00
2023-09-19T20:08:36.473Z,59.10
2023-09-19T20:11:09.500Z,59.20
2023-09-19T20:13:43.371Z,58.90
2023-09-19T20:16:13.751Z,59.00
2023-09-19T20:18:41.940Z,58.80
2023-09-19T20:21:11.417Z,58.90
2023-09-19T20:23:39.832Z,59.10
2023-09-19T20:26:07.806Z,59.40
2023-09-19T20:28:35.749Z,59.30
2023-09-19T20:31:12.200Z,59.20
2023-09-19T20:33:40.298Z,59.20
2023-09-19T20:36:11.117Z,59.10
2023-09-19T20:38:39.670Z,59.00
2023-09-19T20:41:12.115Z,58.90
2023-09-19T20:43:42.047Z,58.60
2023-09-19T20:46:12.292Z,58.30
2023-09-19T20:48:44.393Z,58.00
2023-09-19T20:51:14.445Z,58.00
2023-09-19T20:53:46.800Z,58.40
2023-09-19T20:56:16.139Z,58.40
2023-09-19T20:58:44.996Z,58.50
2023-09-19T21:01:13.230Z,58.70
2023-09-19T21:03:41.170Z,58.80
2023-09-19T21:06:14.400Z,58.90
2023-09-19T21:08:46.169Z,58.90
2023-09-19T21:11:16.769Z,59.00
2023-09-19T21:13:46.441Z,59.20
2023-09-19T21:16:17.056Z,59.30
2023-09-19T21:18:46.797Z,59.90
2023-09-19T21:21:15.096Z,59.80
2023-09-19T21:23:45.075Z,59.70
2023-09-19T21:26:14.961Z,60.10
2023-09-19T21:28:45.160Z,60.40
2023-09-19T21:31:15.585Z,60.20
2023-09-19T21:33:44.354Z,61.00
2023-09-19T21:36:23.937Z,59.80
2023-09-19T21:38:51.969Z,59.80
2023-09-19T21:41:20.872Z,59.80
2023-09-19T21:43:52.559Z,59.60
2023-09-19T21:46:21.568Z,59.30
2023-09-19T21:48:54.784Z,59.60
2023-09-19T21:51:23.301Z,59.90
2023-09-19T21:53:50.821Z,60.60
2023-09-19T21:56:19.315Z,60.70
2023-09-19T21:58:47.291Z,60.80
2023-09-19T22:01:19.018Z,61.30
2023-09-19T22:03:46.830Z,61.50
2023-09-19T22:06:15.014Z,61.50
2023-09-19T22:08:42.868Z,61.70
2023-09-19T22:11:11.800Z,62.10
2023-09-19T22:13:43.270Z,61.80
2023-09-19T22:16:19.006Z,61.50
2023-09-19T22:18:47.764Z,61.70
2023-09-19T22:21:23.262Z,61.50
2023-09-19T22:23:54.256Z,61.70
2023-09-19T22:26:25.711Z,61.60
2023-09-19T22:28:56.360Z,61.70
2023-09-19T22:31:39.654Z,61.60
2023-09-19T22:34:07.775Z,61.60
2023-09-19T22:36:45.155Z,61.80
2023-09-19T22:39:17.640Z,61.60
2023-09-19T22:41:46.796Z,61.80
2023-09-19T22:44:14.889Z,61.90
2023-09-19T22:46:43.832Z,62.30
2023-09-19T22:49:18.299Z,62.60
2023-09-19T22:51:50.342Z,63.00
2023-09-19T22:54:27.935Z,63.20
2023-09-19T22:56:56.526Z,63.20
2023-09-19T22:59:24.405Z,63.20
2023-09-19T23:01:53.565Z,63.20
2023-09-19T23:04:23.054Z,63.00
2023-09-19T23:06:53.235Z,63.20
2023-09-19T23:09:25.131Z,63.30
2023-09-19T23:12:17.845Z,63.40
2023-09-19T23:14:45.661Z,63.20
2023-09-19T23:17:14.406Z,63.40
2023-09-19T23:19:49.879Z,63.60
2023-09-19T23:22:17.581Z,63.40
2023-09-19T23:25:02.183Z,63.60
2023-09-19T23:27:35.090Z,63.50
2023-09-19T23:30:09.421Z,63.50
2023-09-19T23:32:37.330Z,63.60
2023-09-19T23:35:06.019Z,63.50
2023-09-19T23:37:33.698Z,63.70
2023-09-19T23:40:01.989Z,63.50
2023-09-19T23:42:32.685Z,63.40
2023-09-19T23:45:01.482Z,63.70
2023-09-19T23:47:29.377Z,64.30
2023-09-19T23:49:58.619Z,64.60
2023-09-19T23:52:27.988Z,65.00
2023-09-19T23:55:00.585Z,65.40
2023-09-19T23:57:28.782Z,66.00
2023-09-19T23:59:56.343Z,66.60
